createdAt,value
2023-01-20T00:02:04.034Z,24.85
2023-01-20T00:04:35.734Z,27.63
2023-01-20T00:07:07.377Z,28.02
2023-01-20T00:09:39.014Z,25.65
2023-01-20T00:12:10.691Z,25.85
2023-01-20T00:14:42.310Z,25.77
2023-01-20T00:17:13.935Z,25.95
2023-01-20T00:19:45.654Z,30.10
2023-01-20T00:22:17.298Z,24.67
2023-01-20T00:24:49.061Z,23.75
2023-01-20T00:27:20.735Z,20.90
2023-01-20T00:29:52.386Z,21.85
2023-01-20T00:32:24.089Z,21.15
2023-01-20T00:34:55.762Z,18.73
2023-01-20T00:37:27.406Z,22.13
2023-01-20T00:39:59.065Z,20.00
2023-01-20T00:42:30.732Z,20.52
2023-01-20T00:45:02.495Z,21.42
2023-01-20T00:47:34.163Z,22.50
2023-01-20T00:50:06.158Z,19.73
2023-01-20T00:52:37.886Z,20.73
2023-01-20T00:55:09.916Z,21.67
2023-01-20T00:57:41.590Z,20.50
2023-01-20T01:00:13.722Z,22.75
2023-01-20T01:02:48.097Z,21.67
2023-01-20T01:05:19.854Z,23.70
2023-01-20T01:07:51.678Z,21.13
2023-01-20T01:10:23.403Z,20.33
2023-01-20T01:12:55.191Z,18.00
2023-01-20T01:15:29.455Z,21.40
2023-01-20T01:18:01.743Z,22.80
2023-01-20T01:20:33.491Z,21.33
2023-01-20T01:23:05.142Z,22.08
2023-01-20T01:25:40.325Z,22.95
2023-01-20T01:28:12.002Z,24.23
2023-01-20T01:30:43.832Z,23.40
2023-01-20T01:33:15.539Z,21.50
2023-01-20T01:35:57.404Z,23.20
2023-01-20T01:38:29.747Z,20.58
2023-01-20T01:41:01.648Z,25.65
2023-01-20T01:43:36.351Z,20.70
2023-01-20T01:46:08.634Z,21.80
2023-01-20T01:48:45.270Z,21.88
2023-01-20T01:51:25.689Z,24.73
2023-01-20T01:54:02.972Z,24.15
2023-01-20T01:56:39.522Z,20.40
2023-01-20T01:59:13.137Z,23.58
2023-01-20T02:01:50.188Z,25.42
2023-01-20T02:04:27.310Z,24.35
2023-01-20T02:07:04.591Z,23.40
2023-01-20T02:09:37.805Z,26.08
2023-01-20T02:12:15.475Z,27.20
2023-01-20T02:14:54.299Z,23.85
2023-01-20T02:17:30.313Z,23.42
2023-01-20T02:20:01.842Z,24.40
2023-01-20T02:22:37.854Z,24.17
2023-01-20T02:25:38.959Z,27.13
2023-01-20T02:28:41.201Z,26.77
2023-01-20T02:31:57.843Z,23.65
2023-01-20T02:34:59.045Z,22.05
2023-01-20T02:37:45.399Z,24.15
2023-01-20T02:40:39.879Z,23.00
2023-01-20T02:43:37.963Z,25.85
2023-01-20T02:46:16.396Z,24.88
2023-01-20T02:49:02.113Z,22.33
2023-01-20T02:51:54.120Z,21.95
2023-01-20T02:54:30.682Z,22.13
2023-01-20T02:57:06.240Z,21.63
2023-01-20T02:59:45.770Z,24.30
2023-01-20T03:02:21.132Z,25.55
2023-01-20T03:05:05.003Z,23.80
2023-01-20T03:07:40.182Z,22.73
2023-01-20T03:10:17.753Z,26.45
2023-01-20T03:12:55.803Z,26.05
2023-01-20T03:15:41.682Z,24.35
2023-01-20T03:18:13.365Z,21.38
2023-01-20T03:20:44.980Z,23.20
2023-01-20T03:23:16.879Z,22.40
2023-01-20T03:25:51.986Z,23.40
2023-01-20T03:28:25.741Z,23.33
2023-01-20T03:30:59.940Z,21.02
2023-01-20T03:33:33.278Z,24.92
2023-01-20T03:36:05.482Z,22.73
2023-01-20T03:38:37.210Z,19.90
2023-01-20T03:41:54.497Z,23.55
2023-01-20T03:44:47.990Z,21.55
2023-01-20T03:47:42.323Z,22.42
2023-01-20T03:50:45.935Z,25.23
2023-01-20T03:53:46.855Z,27.75
2023-01-20T03:56:35.353Z,22.05
2023-01-20T03:59:10.339Z,22.92
2023-01-20T04:01:44.480Z,22.67
2023-01-20T04:04:20.155Z,21.10
2023-01-20T04:06:52.515Z,21.67
2023-01-20T04:09:30.178Z,24.15
2023-01-20T04:12:04.107Z,23.42
2023-01-20T04:14:36.439Z,23.60
2023-01-20T04:17:08.457Z,25.08
2023-01-20T04:19:40.355Z,28.08
2023-01-20T04:22:28.082Z,27.45
2023-01-20T04:25:24.516Z,27.15
2023-01-20T04:27:56.343Z,27.70
2023-01-20T04:30:28.082Z,24.40
2023-01-20T04:32:59.841Z,23.05
2023-01-20T04:35:31.468Z,21.38
2023-01-20T04:38:03.142Z,21.98
2023-01-20T04:40:36.930Z,23.45
2023-01-20T04:43:10.156Z,26.48
2023-01-20T04:45:42.014Z,25.98
2023-01-20T04:48:13.671Z,21.75
2023-01-20T04:50:45.470Z,24.73
2023-01-20T04:53:19.285Z,25.23
2023-01-20T04:55:53.606Z,26.40
2023-01-20T04:58:25.710Z,24.23
2023-01-20T05:00:57.340Z,26.48
2023-01-20T05:03:29.010Z,22.80
2023-01-20T05:06:00.760Z,24.10
2023-01-20T05:08:33.366Z,23.80
2023-01-20T05:11:05.597Z,25.60
2023-01-20T05:13:39.435Z,23.27
2023-01-20T05:16:11.497Z,20.47
2023-01-20T05:18:43.181Z,23.98
2023-01-20T05:21:14.860Z,22.38
2023-01-20T05:23:46.548Z,21.73
2023-01-20T05:26:20.236Z,22.48
2023-01-20T05:28:52.224Z,21.48
2023-01-20T05:31:24.065Z,21.60
2023-01-20T05:33:55.846Z,19.85
2023-01-20T05:36:28.356Z,24.67
2023-01-20T05:39:00.039Z,20.55
2023-01-20T05:41:31.720Z,21.10
2023-01-20T05:44:03.464Z,19.40
2023-01-20T05:46:35.166Z,24.92
2023-01-20T05:49:06.921Z,21.13
2023-01-20T05:51:38.726Z,24.10
2023-01-20T05:54:10.485Z,26.63
2023-01-20T05:56:42.157Z,23.27
2023-01-20T05:59:13.824Z,23.85
2023-01-20T06:01:45.510Z,23.92
2023-01-20T06:04:17.191Z,20.35
2023-01-20T06:06:51.747Z,25.58
2023-01-20T06:09:23.500Z,21.30
2023-01-20T06:11:55.129Z,24.98
2023-01-20T06:14:26.858Z,40.95
2023-01-20T06:16:58.526Z,44.35
2023-01-20T06:19:30.223Z,42.10
2023-01-20T06:22:02.256Z,40.38
2023-01-20T06:24:37.035Z,39.60
2023-01-20T06:29:45.674Z,31.88
2023-01-20T06:32:20.235Z,26.85
2023-01-20T06:34:56.275Z,20.67
2023-01-20T06:37:28.016Z,20.42
2023-01-20T06:39:59.738Z,20.92
2023-01-20T06:42:32.209Z,19.85
2023-01-20T06:45:04.242Z,22.40
2023-01-20T06:47:36.213Z,19.77
2023-01-20T06:50:08.483Z,21.90
2023-01-20T06:52:40.130Z,20.73
2023-01-20T06:55:11.873Z,21.88
2023-01-20T06:57:46.073Z,19.55
2023-01-20T07:00:18.151Z,19.80
2023-01-20T07:02:49.824Z,22.10
2023-01-20T07:05:21.552Z,23.83
2023-01-20T07:07:53.292Z,20.95
2023-01-20T07:10:24.938Z,19.40
2023-01-20T07:12:59.327Z,25.30
2023-01-20T07:15:31.031Z,31.95
2023-01-20T07:18:02.682Z,25.63
2023-01-20T07:20:34.528Z,25.83
2023-01-20T07:23:07.155Z,25.40
2023-01-20T07:25:39.596Z,22.80
2023-01-20T07:28:11.262Z,23.95
2023-01-20T07:30:42.908Z,23.27
2023-01-20T07:33:14.587Z,25.23
2023-01-20T07:35:52.191Z,21.73
2023-01-20T07:38:25.094Z,26.65
2023-01-20T07:41:01.686Z,24.52
2023-01-20T07:43:34.486Z,24.92
2023-01-20T07:46:06.295Z,24.13
2023-01-20T07:48:38.442Z,25.75
2023-01-20T07:51:12.004Z,24.15
2023-01-20T07:53:46.981Z,25.60
2023-01-20T07:56:24.081Z,24.95
2023-01-20T07:58:56.381Z,24.52
2023-01-20T08:01:31.081Z,25.45
2023-01-20T08:04:03.013Z,26.23
2023-01-20T08:06:34.798Z,24.40
2023-01-20T08:09:08.958Z,23.65
2023-01-20T08:11:40.841Z,21.08
2023-01-20T08:14:12.573Z,23.55
2023-01-20T08:16:44.706Z,23.30
2023-01-20T08:19:16.471Z,23.08
2023-01-20T08:21:48.137Z,24.20
2023-01-20T08:24:19.859Z,22.88
2023-01-20T08:26:51.515Z,20.15
2023-01-20T08:29:23.226Z,23.27
2023-01-20T08:31:55.061Z,23.08
2023-01-20T08:34:27.407Z,21.67
2023-01-20T08:36:59.079Z,23.77
2023-01-20T08:39:31.894Z,19.42
2023-01-20T08:42:03.757Z,23.23
2023-01-20T08:44:35.448Z,22.88
2023-01-20T08:47:07.231Z,28.02
2023-01-20T08:49:38.933Z,29.90
2023-01-20T08:52:12.188Z,25.95
2023-01-20T08:54:44.027Z,24.17
2023-01-20T08:57:16.215Z,29.35
2023-01-20T08:59:48.230Z,22.15
2023-01-20T09:02:20.046Z,30.02
2023-01-20T09:04:52.561Z,30.25
2023-01-20T09:07:24.235Z,32.95
2023-01-20T09:09:55.846Z,27.23
2023-01-20T09:12:27.571Z,31.15
2023-01-20T09:14:59.251Z,25.58
2023-01-20T09:17:31.352Z,34.28
2023-01-20T09:20:06.306Z,31.60
2023-01-20T09:22:40.302Z,34.90
2023-01-20T09:25:12.157Z,31.23
2023-01-20T09:27:43.817Z,34.72
2023-01-20T09:30:17.987Z,35.08
2023-01-20T09:32:53.158Z,29.45
2023-01-20T09:35:25.096Z,27.88
2023-01-20T09:38:15.291Z,29.92
2023-01-20T09:41:17.460Z,28.27
2023-01-20T09:44:02.022Z,26.00
2023-01-20T09:47:09.071Z,26.55
2023-01-20T09:50:12.567Z,30.70
2023-01-20T09:53:03.889Z,26.10
2023-01-20T09:55:58.493Z,25.80
2023-01-20T09:58:51.573Z,26.70
2023-01-20T10:01:38.176Z,24.70
2023-01-20T10:04:19.923Z,21.60
2023-01-20T10:06:53.098Z,24.08
2023-01-20T10:09:46.351Z,23.30
2023-01-20T10:12:27.745Z,25.73
2023-01-20T10:15:24.466Z,20.50
2023-01-20T10:18:13.094Z,27.85
2023-01-20T10:20:58.641Z,23.45
2023-01-20T10:23:43.034Z,24.00
2023-01-20T10:26:43.958Z,26.13
2023-01-20T10:29:34.265Z,28.75
2023-01-20T10:32:32.163Z,24.50
2023-01-20T10:35:15.568Z,27.98
2023-01-20T10:37:47.824Z,31.58
2023-01-20T10:40:30.342Z,29.60
2023-01-20T10:43:11.354Z,29.60
2023-01-20T10:45:42.979Z,25.27
2023-01-20T10:48:30.467Z,25.60
2023-01-20T10:51:23.457Z,28.05
2023-01-20T10:54:27.103Z,25.80
2023-01-20T10:57:01.076Z,26.33
2023-01-20T10:59:37.644Z,28.47
2023-01-20T11:02:35.125Z,25.65
2023-01-20T11:05:25.997Z,24.10
2023-01-20T11:08:00.648Z,30.23
2023-01-20T11:10:33.448Z,26.75
2023-01-20T11:13:05.189Z,32.15
2023-01-20T11:15:48.775Z,30.00
2023-01-20T11:18:24.292Z,28.55
2023-01-20T11:20:57.816Z,34.33
2023-01-20T11:23:36.782Z,29.88
2023-01-20T11:26:20.021Z,32.13
2023-01-20T11:29:11.083Z,31.67
2023-01-20T11:31:49.652Z,29.17
2023-01-20T11:34:28.424Z,30.33
2023-01-20T11:37:03.048Z,26.33
2023-01-20T11:39:59.012Z,31.48
2023-01-20T11:42:42.665Z,31.00
2023-01-20T11:45:36.822Z,26.67
2023-01-20T11:48:16.304Z,26.75
2023-01-20T11:50:54.324Z,28.33
2023-01-20T11:53:34.530Z,33.08
2023-01-20T11:56:18.836Z,29.02
2023-01-20T11:58:56.282Z,27.10
2023-01-20T12:01:30.524Z,28.75
2023-01-20T12:04:25.134Z,28.33
2023-01-20T12:07:08.549Z,28.83
2023-01-20T12:09:47.064Z,32.30
2023-01-20T12:12:37.779Z,25.63
2023-01-20T12:15:19.308Z,26.83
2023-01-20T12:18:09.690Z,29.48
2023-01-20T12:21:08.121Z,28.08
2023-01-20T12:23:48.696Z,25.85
2023-01-20T12:26:22.651Z,27.35
2023-01-20T12:29:22.854Z,28.90
2023-01-20T12:31:54.750Z,30.27
2023-01-20T12:34:30.976Z,27.27
2023-01-20T12:37:29.745Z,28.85
2023-01-20T12:40:30.269Z,29.05
2023-01-20T12:43:27.151Z,34.15
2023-01-20T12:46:20.219Z,27.98
2023-01-20T12:49:12.948Z,29.17
2023-01-20T12:52:10.703Z,30.45
2023-01-20T12:54:56.311Z,27.75
2023-01-20T12:57:46.076Z,32.28
2023-01-20T13:00:54.408Z,28.05
2023-01-20T13:03:50.055Z,28.35
2023-01-20T13:09:52.109Z,33.25
2023-01-20T13:12:35.829Z,31.17
2023-01-20T13:15:29.168Z,32.15
2023-01-20T13:18:21.704Z,29.75
2023-01-20T13:20:55.130Z,31.60
2023-01-20T13:23:36.877Z,34.85
2023-01-20T13:26:09.205Z,32.72
2023-01-20T13:28:52.065Z,30.27
2023-01-20T13:31:37.224Z,33.13
2023-01-20T13:37:26.688Z,32.55
2023-01-20T13:40:01.800Z,30.02
2023-01-20T13:42:36.277Z,34.10
2023-01-20T13:45:14.655Z,35.33
2023-01-20T13:47:59.470Z,33.03
2023-01-20T13:50:37.966Z,31.33
2023-01-20T13:53:13.080Z,31.38
2023-01-20T13:55:44.651Z,34.88
2023-01-20T13:58:22.074Z,34.10
2023-01-20T14:00:55.155Z,32.60
2023-01-20T14:03:36.212Z,31.48
2023-01-20T14:06:13.815Z,35.25
2023-01-20T14:08:51.011Z,31.35
2023-01-20T14:11:27.229Z,34.13
2023-01-20T14:14:06.105Z,28.23
2023-01-20T14:16:41.218Z,28.75
2023-01-20T14:19:22.512Z,27.25
2023-01-20T14:22:01.833Z,28.65
2023-01-20T14:24:42.924Z,32.38
2023-01-20T14:27:27.273Z,30.45
2023-01-20T14:30:18.900Z,29.02
2023-01-20T14:32:51.823Z,28.50
2023-01-20T14:35:36.492Z,28.67
2023-01-20T14:38:18.491Z,28.08
2023-01-20T14:40:50.237Z,31.25
2023-01-20T14:43:27.659Z,29.85
2023-01-20T14:45:59.818Z,29.38
2023-01-20T14:48:34.940Z,29.23
2023-01-20T14:51:08.372Z,26.63
2023-01-20T14:53:40.025Z,25.67
2023-01-20T14:56:21.601Z,31.65
2023-01-20T14:58:55.061Z,31.67
2023-01-20T15:01:26.944Z,30.10
2023-01-20T15:04:01.926Z,33.10
2023-01-20T15:06:33.675Z,32.78
2023-01-20T15:09:24.792Z,31.67
2023-01-20T15:12:34.002Z,30.90
2023-01-20T15:15:39.561Z,30.95
2023-01-20T15:18:11.276Z,29.98
2023-01-20T15:20:51.624Z,27.65
2023-01-20T15:23:45.972Z,31.77
2023-01-20T15:26:30.126Z,32.30
2023-01-20T15:29:01.822Z,26.88
2023-01-20T15:31:33.471Z,28.83
2023-01-20T15:34:05.156Z,29.55
2023-01-20T15:36:39.609Z,30.88
2023-01-20T15:39:12.970Z,31.45
2023-01-20T15:41:45.934Z,33.92
2023-01-20T15:44:17.599Z,32.85
2023-01-20T15:46:49.383Z,33.13
2023-01-20T15:49:21.254Z,36.03
2023-01-20T15:51:53.070Z,35.47
2023-01-20T15:54:27.722Z,33.30
2023-01-20T15:56:59.994Z,31.13
2023-01-20T15:59:32.513Z,36.35
2023-01-20T16:02:08.950Z,32.92
2023-01-20T16:04:40.581Z,36.22
2023-01-20T16:07:17.988Z,34.22
2023-01-20T16:09:49.743Z,33.13
2023-01-20T16:12:21.389Z,34.92
2023-01-20T16:14:53.060Z,35.95
2023-01-20T16:17:26.056Z,32.72
2023-01-20T16:19:58.311Z,33.65
2023-01-20T16:22:29.975Z,32.13
2023-01-20T16:25:01.618Z,34.28
2023-01-20T16:27:33.273Z,34.60
2023-01-20T16:30:05.731Z,32.05
2023-01-20T16:32:37.331Z,32.72
2023-01-20T16:35:09.258Z,33.83
2023-01-20T16:37:42.201Z,32.38
2023-01-20T16:40:16.686Z,33.08
2023-01-20T16:42:48.807Z,33.05
2023-01-20T16:45:27.907Z,31.17
2023-01-20T16:47:59.657Z,33.45
2023-01-20T16:50:34.184Z,36.17
2023-01-20T16:53:05.847Z,35.47
2023-01-20T16:55:57.880Z,37.22
2023-01-20T16:58:35.283Z,34.05
2023-01-20T17:01:12.369Z,37.22
2023-01-20T17:03:56.334Z,34.85
2023-01-20T17:06:35.026Z,36.63
2023-01-20T17:09:25.121Z,38.90
2023-01-20T17:12:05.424Z,38.15
2023-01-20T17:14:40.358Z,38.45
2023-01-20T17:17:21.498Z,39.42
2023-01-20T17:19:54.310Z,36.30
2023-01-20T17:22:31.674Z,35.20
2023-01-20T17:25:07.661Z,37.78
2023-01-20T17:27:43.299Z,33.22
2023-01-20T17:30:17.018Z,40.78
2023-01-20T17:32:49.359Z,38.28
2023-01-20T17:35:20.996Z,33.58
2023-01-20T17:37:52.630Z,36.72
2023-01-20T17:40:24.243Z,34.05
2023-01-20T17:42:58.029Z,38.83
2023-01-20T17:45:31.921Z,36.42
2023-01-20T17:48:04.707Z,31.87
2023-01-20T17:50:39.265Z,36.63
2023-01-20T17:53:10.989Z,37.58
2023-01-20T17:55:42.638Z,33.70
2023-01-20T17:58:14.378Z,33.60
2023-01-20T18:00:46.042Z,30.90
2023-01-20T18:03:17.720Z,35.72
2023-01-20T18:05:49.465Z,35.10
2023-01-20T18:08:21.194Z,35.05
2023-01-20T18:10:52.886Z,32.60
2023-01-20T18:13:24.624Z,35.78
2023-01-20T18:15:58.274Z,30.15
2023-01-20T18:18:29.931Z,32.10
2023-01-20T18:21:22.159Z,41.70
2023-01-20T18:23:53.966Z,32.42
2023-01-20T18:26:29.558Z,34.58
2023-01-20T18:29:05.612Z,32.22
2023-01-20T18:31:37.394Z,31.23
2023-01-20T18:34:12.368Z,29.75
2023-01-20T18:39:23.632Z,33.90
2023-01-20T18:41:55.371Z,33.20
2023-01-20T18:44:27.138Z,32.78
2023-01-20T18:46:58.867Z,33.38
2023-01-20T18:49:31.526Z,31.15
2023-01-20T18:52:03.375Z,32.95
2023-01-20T18:54:37.199Z,26.77
2023-01-20T18:57:09.240Z,34.75
2023-01-20T18:59:42.091Z,34.92
2023-01-20T19:02:13.927Z,33.83
2023-01-20T19:04:45.651Z,32.58
2023-01-20T19:07:17.330Z,34.67
2023-01-20T19:09:49.040Z,34.25
2023-01-20T19:12:20.678Z,33.97
2023-01-20T19:14:52.735Z,33.35
2023-01-20T19:17:26.663Z,38.33
2023-01-20T19:19:58.874Z,33.07
2023-01-20T19:22:30.894Z,34.47
2023-01-20T19:25:02.590Z,35.97
2023-01-20T19:27:34.239Z,32.88
2023-01-20T19:30:06.706Z,32.13
2023-01-20T19:32:42.218Z,34.55
2023-01-20T19:35:14.031Z,33.88
2023-01-20T19:37:45.657Z,34.40
2023-01-20T19:40:17.682Z,33.80
2023-01-20T19:42:52.485Z,37.15
2023-01-20T19:45:26.909Z,35.75
2023-01-20T19:48:00.633Z,34.83
2023-01-20T19:50:32.735Z,32.03
2023-01-20T19:53:04.405Z,29.75
2023-01-20T19:55:36.082Z,33.25
2023-01-20T19:58:07.740Z,29.52
2023-01-20T20:00:39.441Z,29.33
2023-01-20T20:03:11.173Z,33.55
2023-01-20T20:05:44.097Z,32.95
2023-01-20T20:08:15.737Z,31.52
2023-01-20T20:10:47.430Z,27.45
2023-01-20T20:13:20.588Z,27.80
2023-01-20T20:16:03.816Z,30.17
2023-01-20T20:18:35.507Z,28.83
2023-01-20T20:21:08.446Z,29.13
2023-01-20T20:23:40.169Z,28.00
2023-01-20T20:26:12.616Z,31.05
2023-01-20T20:28:44.788Z,28.70
2023-01-20T20:31:17.136Z,25.92
2023-01-20T20:33:48.923Z,26.67
2023-01-20T20:36:20.801Z,25.85
2023-01-20T20:38:53.948Z,28.30
2023-01-20T20:41:29.391Z,27.13
2023-01-20T20:44:01.850Z,25.98
2023-01-20T20:46:33.659Z,26.58
2023-01-20T20:49:05.408Z,26.17
2023-01-20T20:51:39.123Z,22.67
2023-01-20T20:54:13.177Z,27.08
2023-01-20T20:56:45.753Z,24.05
2023-01-20T20:59:22.935Z,23.90
2023-01-20T21:01:54.706Z,29.15
2023-01-20T21:04:27.013Z,24.15
2023-01-20T21:06:58.652Z,20.63
2023-01-20T21:09:30.422Z,23.60
2023-01-20T21:12:02.117Z,26.52
2023-01-20T21:14:33.774Z,23.70
2023-01-20T21:17:05.504Z,23.63
2023-01-20T21:19:37.183Z,22.50
2023-01-20T21:22:08.984Z,24.75
2023-01-20T21:24:40.735Z,22.23
2023-01-20T21:27:12.425Z,23.67
2023-01-20T21:29:44.439Z,26.35
2023-01-20T21:32:16.252Z,24.85
2023-01-20T21:34:47.970Z,21.33
2023-01-20T21:37:21.045Z,25.73
2023-01-20T21:39:52.704Z,25.88
2023-01-20T21:42:24.413Z,27.83
2023-01-20T21:44:56.236Z,22.65
2023-01-20T21:47:27.918Z,25.02
2023-01-20T21:50:18.404Z,24.88
2023-01-20T21:52:50.310Z,25.98
2023-01-20T21:55:24.187Z,21.15
2023-01-20T21:57:56.412Z,20.40
2023-01-20T22:00:30.113Z,25.92
2023-01-20T22:03:01.910Z,22.88
2023-01-20T22:05:38.458Z,22.95
2023-01-20T22:08:10.097Z,19.65
2023-01-20T22:10:41.771Z,20.63
2023-01-20T22:13:13.437Z,23.20
2023-01-20T22:15:45.086Z,20.55
2023-01-20T22:18:21.365Z,26.55
2023-01-20T22:20:53.039Z,27.45
2023-01-20T22:23:24.769Z,21.52
2023-01-20T22:25:57.889Z,21.92
2023-01-20T22:28:30.265Z,21.23
2023-01-20T22:31:10.775Z,24.63
2023-01-20T22:33:42.888Z,25.90
2023-01-20T22:36:14.562Z,21.83
2023-01-20T22:38:46.334Z,21.23
2023-01-20T22:41:19.712Z,17.95
2023-01-20T22:43:51.945Z,17.35
2023-01-20T22:46:26.035Z,21.80
2023-01-20T22:48:59.181Z,17.75
2023-01-20T22:51:30.967Z,20.17
2023-01-20T22:54:02.841Z,19.63
2023-01-20T22:56:34.529Z,19.20
2023-01-20T22:59:08.833Z,14.18
2023-01-20T23:01:40.541Z,18.25
2023-01-20T23:04:12.238Z,17.45
2023-01-20T23:06:43.882Z,15.95
2023-01-20T23:09:15.604Z,15.95
2023-01-20T23:11:48.608Z,16.65
2023-01-20T23:14:41.306Z,19.33
2023-01-20T23:17:13.083Z,16.25
2023-01-20T23:19:47.751Z,22.30
2023-01-20T23:24:51.409Z,15.02
2023-01-20T23:27:23.073Z,20.20
2023-01-20T23:29:55.772Z,18.50
2023-01-20T23:32:27.489Z,17.00
2023-01-20T23:34:59.139Z,17.63
2023-01-20T23:37:30.802Z,21.80
2023-01-20T23:40:02.684Z,18.95
2023-01-20T23:42:34.366Z,14.68
2023-01-20T23:45:09.331Z,15.57
2023-01-20T23:47:40.996Z,13.55
2023-01-20T23:50:12.747Z,19.58
2023-01-20T23:52:47.424Z,16.02
2023-01-20T23:55:19.217Z,13.48
2023-01-20T23:57:50.855Z,14.15
